sensor_id;sensor_type;location;lat;lon;timestamp;P1;P2;P0
74436;PMS7003;62868;52.360;30.424;2023-05-07T00:02:03;0.3;0;0
74436;PMS7003;62868;52.360;30.424;2023-05-07T00:06:53;0;0;0
74436;PMS7003;62868;52.360;30.424;2023-05-07T00:11:53;0.7;0;0
74436;PMS7003;62868;52.360;30.424;2023-05-07T00:16:15;0.3;0;0
74436;PMS7003;62868;52.360;30.424;2023-05-07T00:22:03;0.3;0;0
74436;PMS7003;62868;52.360;30.424;2023-05-07T00:26:25;0;0;0
74436;PMS7003;62868;52.360;30.424;2023-05-07T00:31:49;0.3;0;0
74436;PMS7003;62868;52.360;30.424;2023-05-07T00:37:01;0.3;0;0
74436;PMS7003;62868;52.360;30.424;2023-05-07T00:41:37;0;0;0
74436;PMS7003;62868;52.360;30.424;2023-05-07T00:46:35;0;0;0
74436;PMS7003;62868;52.360;30.424;2023-05-07T00:51:41;0;0;0
74436;PMS7003;62868;52.360;30.424;2023-05-07T00:56:33;0;0;0
74436;PMS7003;62868;52.360;30.424;2023-05-07T01:01:53;0;0;0
74436;PMS7003;62868;52.360;30.424;2023-05-07T01:06:41;0;0;0
74436;PMS7003;62868;52.360;30.424;2023-05-07T01:11:41;0;0;0
74436;PMS7003;62868;52.360;30.424;2023-05-07T01:16:45;0;0;0
74436;PMS7003;62868;52.360;30.424;2023-05-07T01:22:02;0;0;0
74436;PMS7003;62868;52.360;30.424;2023-05-07T01:26:45;0.3;0;0
74436;PMS7003;62868;52.360;30.424;2023-05-07T01:31:35;0.3;0.3;0.3
74436;PMS7003;62868;52.360;30.424;2023-05-07T01:36:15;2;1.8;1.3
74436;PMS7003;62868;52.360;30.424;2023-05-07T01:42:01;2;1;0.3
74436;PMS7003;62868;52.360;30.424;2023-05-07T01:46:37;0.7;0.3;0
74436;PMS7003;62868;52.360;30.424;2023-05-07T01:51:15;0.7;0.3;0
74436;PMS7003;62868;52.360;30.424;2023-05-07T01:57:01;0.3;0;0
74436;PMS7003;62868;52.360;30.424;2023-05-07T02:01:15;0;0;0
74436;PMS7003;62868;52.360;30.424;2023-05-07T02:06:15;0;0;0
74436;PMS7003;62868;52.360;30.424;2023-05-07T02:11:21;0.3;0;0
74436;PMS7003;62868;52.360;30.424;2023-05-07T02:17:01;0.3;0;0
74436;PMS7003;62868;52.360;30.424;2023-05-07T02:21:53;0;0;0
74436;PMS7003;62868;52.360;30.424;2023-05-07T02:27:01;0.3;0;0
74436;PMS7003;62868;52.360;30.424;2023-05-07T02:32:01;0;0;0
74436;PMS7003;62868;52.360;30.424;2023-05-07T02:36:27;0.3;0;0
74436;PMS7003;62868;52.360;30.424;2023-05-07T02:41:15;0.7;0.3;0
74436;PMS7003;62868;52.360;30.424;2023-05-07T02:47:01;0;0;0
74436;PMS7003;62868;52.360;30.424;2023-05-07T02:51:37;0;0;0
74436;PMS7003;62868;52.360;30.424;2023-05-07T02:57:03;0.3;0.3;0
74436;PMS7003;62868;52.360;30.424;2023-05-07T03:01:27;0;0;0
74436;PMS7003;62868;52.360;30.424;2023-05-07T03:07:01;0;0;0
74436;PMS7003;62868;52.360;30.424;2023-05-07T03:11:53;0.3;0;0
74436;PMS7003;62868;52.360;30.424;2023-05-07T03:16:15;0;0;0
74436;PMS7003;62868;52.360;30.424;2023-05-07T03:21:37;0;0;0
74436;PMS7003;62868;52.360;30.424;2023-05-07T03:27:01;0.3;0;0
74436;PMS7003;62868;52.360;30.424;2023-05-07T03:31:15;0;0;0
74436;PMS7003;62868;52.360;30.424;2023-05-07T03:36:49;0;0;0
74436;PMS7003;62868;52.360;30.424;2023-05-07T03:42:01;0;0;0
74436;PMS7003;62868;52.360;30.424;2023-05-07T03:46:45;0.3;0;0
74436;PMS7003;62868;52.360;30.424;2023-05-07T03:51:15;0.5;0.5;0
74436;PMS7003;62868;52.360;30.424;2023-05-07T03:56:41;0;0;0
74436;PMS7003;62868;52.360;30.424;2023-05-07T04:01:33;0.3;0;0
74436;PMS7003;62868;52.360;30.424;2023-05-07T04:06:53;0.3;0;0
74436;PMS7003;62868;52.360;30.424;2023-05-07T04:11:15;0.5;0;0
74436;PMS7003;62868;52.360;30.424;2023-05-07T04:16:34;0;0;0
74436;PMS7003;62868;52.360;30.424;2023-05-07T04:21:45;0.3;0.3;0
74436;PMS7003;62868;52.360;30.424;2023-05-07T04:27:01;0.3;0;0
74436;PMS7003;62868;52.360;30.424;2023-05-07T04:31:15;0.3;0;0
74436;PMS7003;62868;52.360;30.424;2023-05-07T04:36:15;0;0;0
74436;PMS7003;62868;52.360;30.424;2023-05-07T04:41:27;0;0;0
74436;PMS7003;62868;52.360;30.424;2023-05-07T04:47:01;0.5;0.3;0
74436;PMS7003;62868;52.360;30.424;2023-05-07T04:51:53;1.3;1;0.3
74436;PMS7003;62868;52.360;30.424;2023-05-07T04:56:15;1;0.7;0.7
74436;PMS7003;62868;52.360;30.424;2023-05-07T05:02:01;0.3;0.3;0.3
74436;PMS7003;62868;52.360;30.424;2023-05-07T05:06:41;0;0;0
74436;PMS7003;62868;52.360;30.424;2023-05-07T05:11:27;0.3;0;0
74436;PMS7003;62868;52.360;30.424;2023-05-07T05:16:33;0.3;0;0
74436;PMS7003;62868;52.360;30.424;2023-05-07T05:22:01;0;0;0
74436;PMS7003;62868;52.360;30.424;2023-05-07T05:26:15;0.8;0.5;0.3
74436;PMS7003;62868;52.360;30.424;2023-05-07T05:32:01;0.3;0;0
74436;PMS7003;62868;52.360;30.424;2023-05-07T05:37:01;0.7;0.3;0.3
74436;PMS7003;62868;52.360;30.424;2023-05-07T05:41:25;1;0.3;0.3
74436;PMS7003;62868;52.360;30.424;2023-05-07T05:46:37;0.3;0.3;0.3
74436;PMS7003;62868;52.360;30.424;2023-05-07T05:51:49;0.3;0.3;0
74436;PMS7003;62868;52.360;30.424;2023-05-07T05:56:33;1;1;1
74436;PMS7003;62868;52.360;30.424;2023-05-07T06:01:53;9.7;9.3;7.7
74436;PMS7003;62868;52.360;30.424;2023-05-07T06:06:41;4.8;4.8;3.5
74436;PMS7003;62868;52.360;30.424;2023-05-07T06:12:01;1;1;1
74436;PMS7003;62868;52.360;30.424;2023-05-07T06:16:45;0.7;0.3;0.3
74436;PMS7003;62868;52.360;30.424;2023-05-07T06:21:16;0.7;0.3;0.3
74436;PMS7003;62868;52.360;30.424;2023-05-07T06:26:15;0.5;0.3;0.3
74436;PMS7003;62868;52.360;30.424;2023-05-07T06:32:06;0;0;0
74436;PMS7003;62868;52.360;30.424;2023-05-07T06:36:25;0;0;0
74436;PMS7003;62868;52.360;30.424;2023-05-07T06:42:00;0.3;0.3;0
74436;PMS7003;62868;52.360;30.424;2023-05-07T06:46:47;0;0;0
74436;PMS7003;62868;52.360;30.424;2023-05-07T06:51:27;0;0;0
74436;PMS7003;62868;52.360;30.424;2023-05-07T06:56:27;0;0;0
74436;PMS7003;62868;52.360;30.424;2023-05-07T07:01:41;0;0;0
74436;PMS7003;62868;52.360;30.424;2023-05-07T07:06:33;0.3;0;0
74436;PMS7003;62868;52.360;30.424;2023-05-07T07:11:53;0;0;0
74436;PMS7003;62868;52.360;30.424;2023-05-07T07:16:41;0;0;0
74436;PMS7003;62868;52.360;30.424;2023-05-07T07:21:15;0;0;0
74436;PMS7003;62868;52.360;30.424;2023-05-07T07:27:01;0;0;0
74436;PMS7003;62868;52.360;30.424;2023-05-07T07:32:01;0;0;0
74436;PMS7003;62868;52.360;30.424;2023-05-07T07:36:21;0;0;0
74436;PMS7003;62868;52.360;30.424;2023-05-07T07:41:15;0;0;0
74436;PMS7003;62868;52.360;30.424;2023-05-07T07:46:15;0;0;0
74436;PMS7003;62868;52.360;30.424;2023-05-07T07:52:02;0.3;0;0
74436;PMS7003;62868;52.360;30.424;2023-05-07T07:56:37;0.3;0;0
74436;PMS7003;62868;52.360;30.424;2023-05-07T08:01:29;0;0;0
74436;PMS7003;62868;52.360;30.424;2023-05-07T08:06:49;0.7;0.7;0.3
74436;PMS7003;62868;52.360;30.424;2023-05-07T08:11:27;2;2;1.7
74436;PMS7003;62868;52.360;30.424;2023-05-07T08:16:33;1;1;0.3
74436;PMS7003;62868;52.360;30.424;2023-05-07T08:21:33;0;0;0
74436;PMS7003;62868;52.360;30.424;2023-05-07T08:26:57;0;0;0
74436;PMS7003;62868;52.360;30.424;2023-05-07T08:31:15;0;0;0
74436;PMS7003;62868;52.360;30.424;2023-05-07T08:37:01;0;0;0
74436;PMS7003;62868;52.360;30.424;2023-05-07T08:42:02;0.3;0;0
74436;PMS7003;62868;52.360;30.424;2023-05-07T08:46:17;0;0;0
74436;PMS7003;62868;52.360;30.424;2023-05-07T08:51:16;0;0;0
74436;PMS7003;62868;52.360;30.424;2023-05-07T08:56:49;0;0;0
74436;PMS7003;62868;52.360;30.424;2023-05-07T09:01:45;0;0;0
74436;PMS7003;62868;52.360;30.424;2023-05-07T09:06:53;0;0;0
74436;PMS7003;62868;52.360;30.424;2023-05-07T09:11:41;0;0;0
74436;PMS7003;62868;52.360;30.424;2023-05-07T09:17:01;0;0;0
74436;PMS7003;62868;52.360;30.424;2023-05-07T09:21:45;1;1;0.7
74436;PMS7003;62868;52.360;30.424;2023-05-07T09:26:29;0;0;0
74436;PMS7003;62868;52.360;30.424;2023-05-07T09:31:27;0.3;0;0
74436;PMS7003;62868;52.360;30.424;2023-05-07T09:37:02;0.3;0;0
74436;PMS7003;62868;52.360;30.424;2023-05-07T09:41:15;0;0;0
74436;PMS7003;62868;52.360;30.424;2023-05-07T09:46:53;0.3;0;0
74436;PMS7003;62868;52.360;30.424;2023-05-07T09:51:50;0.7;0;0
74436;PMS7003;62868;52.360;30.424;2023-05-07T09:56:15;0;0;0
74436;PMS7003;62868;52.360;30.424;2023-05-07T10:01:44;1.7;1;0.3
74436;PMS7003;62868;52.360;30.424;2023-05-07T10:06:15;0;0;0
74436;PMS7003;62868;52.360;30.424;2023-05-07T10:11:15;0;0;0
74436;PMS7003;62868;52.360;30.424;2023-05-07T10:16:51;0;0;0
74436;PMS7003;62868;52.360;30.424;2023-05-07T10:21:54;0;0;0
74436;PMS7003;62868;52.360;30.424;2023-05-07T10:26:28;0.3;0.3;0
74436;PMS7003;62868;52.360;30.424;2023-05-07T10:31:48;1;0.8;0.8
74436;PMS7003;62868;52.360;30.424;2023-05-07T10:36:53;0.3;0.3;0.3
74436;PMS7003;62868;52.360;30.424;2023-05-07T10:42:09;0.3;0.3;0.3
74436;PMS7003;62868;52.360;30.424;2023-05-07T10:46:16;0.3;0.3;0
74436;PMS7003;62868;52.360;30.424;2023-05-07T10:52:06;0;0;0
74436;PMS7003;62868;52.360;30.424;2023-05-07T10:57:17;0.7;0.3;0.3
74436;PMS7003;62868;52.360;30.424;2023-05-07T11:01:51;0;0;0
74436;PMS7003;62868;52.360;30.424;2023-05-07T11:06:22;1;0.7;0.3
74436;PMS7003;62868;52.360;30.424;2023-05-07T11:12:02;0.8;0.3;0
74436;PMS7003;62868;52.360;30.424;2023-05-07T11:16:58;0.3;0;0
74436;PMS7003;62868;52.360;30.424;2023-05-07T11:21:31;0;0;0
74436;PMS7003;62868;52.360;30.424;2023-05-07T11:26:42;0.3;0;0
74436;PMS7003;62868;52.360;30.424;2023-05-07T11:32:02;0.5;0.5;0.5
74436;PMS7003;62868;52.360;30.424;2023-05-07T11:36:32;0.3;0.3;0
74436;PMS7003;62868;52.360;30.424;2023-05-07T11:41:50;0.7;0.7;0.3
74436;PMS7003;62868;52.360;30.424;2023-05-07T11:47:02;0.7;0.3;0.3
74436;PMS7003;62868;52.360;30.424;2023-05-07T11:51:18;1;1;0.5
74436;PMS7003;62868;52.360;30.424;2023-05-07T11:56:16;0.5;0.5;0.3
74436;PMS7003;62868;52.360;30.424;2023-05-07T12:01:28;0.3;0.3;0
74436;PMS7003;62868;52.360;30.424;2023-05-07T12:06:16;1;0.7;0
74436;PMS7003;62868;52.360;30.424;2023-05-07T12:11:54;0.8;0.5;0.3
74436;PMS7003;62868;52.360;30.424;2023-05-07T12:16:42;0.3;0.3;0
74436;PMS7003;62868;52.360;30.424;2023-05-07T12:21:26;0;0;0
74436;PMS7003;62868;52.360;30.424;2023-05-07T12:26:48;0.3;0.3;0
74436;PMS7003;62868;52.360;30.424;2023-05-07T12:32:02;0.8;0.8;0.5
74436;PMS7003;62868;52.360;30.424;2023-05-07T12:36:37;0.7;0;0
74436;PMS7003;62868;52.360;30.424;2023-05-07T12:41:26;0.3;0;0
74436;PMS7003;62868;52.360;30.424;2023-05-07T12:46:28;0;0;0
74436;PMS7003;62868;52.360;30.424;2023-05-07T12:52:02;0.3;0.3;0
74436;PMS7003;62868;52.360;30.424;2023-05-07T12:56:38;0.3;0.3;0
74436;PMS7003;62868;52.360;30.424;2023-05-07T13:01:16;0;0;0
74436;PMS7003;62868;52.360;30.424;2023-05-07T13:07:02;0.3;0.3;0.3
74436;PMS7003;62868;52.360;30.424;2023-05-07T13:11:30;0.5;0;0
74436;PMS7003;62868;52.360;30.424;2023-05-07T13:16:28;0.7;0.3;0
74436;PMS7003;62868;52.360;30.424;2023-05-07T13:21:34;1;0.3;0.3
74436;PMS7003;62868;52.360;30.424;2023-05-07T13:27:02;0.3;0.3;0
74436;PMS7003;62868;52.360;30.424;2023-05-07T13:31:28;0.8;0.3;0
74436;PMS7003;62868;52.360;30.424;2023-05-07T13:37:02;0;0;0
74436;PMS7003;62868;52.360;30.424;2023-05-07T13:41:50;0;0;0
74436;PMS7003;62868;52.360;30.424;2023-05-07T13:46:16;2.3;2;1.3
74436;PMS7003;62868;52.360;30.424;2023-05-07T13:51:38;0.8;0.8;0.8
74436;PMS7003;62868;52.360;30.424;2023-05-07T13:56:50;0.7;0.7;0.7
74436;PMS7003;62868;52.360;30.424;2023-05-07T14:01:48;1.7;1;1
74436;PMS7003;62868;52.360;30.424;2023-05-07T14:06:54;1.5;1.5;1
74436;PMS7003;62868;52.360;30.424;2023-05-07T14:11:16;0.7;0.7;0.3
74436;PMS7003;62868;52.360;30.424;2023-05-07T14:16:48;0.7;0.3;0.3
74436;PMS7003;62868;52.360;30.424;2023-05-07T14:22:04;1;1;0.7
74436;PMS7003;62868;52.360;30.424;2023-05-07T14:26:16;0.3;0.3;0
74436;PMS7003;62868;52.360;30.424;2023-05-07T14:31:28;0.3;0.3;0.3
74436;PMS7003;62868;52.360;30.424;2023-05-07T14:36:46;0;0;0
74436;PMS7003;62868;52.360;30.424;2023-05-07T14:41:26;0;0;0
74436;PMS7003;62868;52.360;30.424;2023-05-07T14:46:50;0;0;0
74436;PMS7003;62868;52.360;30.424;2023-05-07T14:51:50;0.3;0.3;0
74436;PMS7003;62868;52.360;30.424;2023-05-07T14:56:16;0.7;0;0
74436;PMS7003;62868;52.360;30.424;2023-05-07T15:01:18;0;0;0
74436;PMS7003;62868;52.360;30.424;2023-05-07T15:06:42;0;0;0
74436;PMS7003;62868;52.360;30.424;2023-05-07T15:11:28;0.3;0.3;0
74436;PMS7003;62868;52.360;30.424;2023-05-07T15:16:54;0.7;0.7;0.3
74436;PMS7003;62868;52.360;30.424;2023-05-07T15:21:40;0.7;0.7;0.3
74436;PMS7003;62868;52.360;30.424;2023-05-07T15:26:34;0.3;0;0
74436;PMS7003;62868;52.360;30.424;2023-05-07T15:31:46;0;0;0
74436;PMS7003;62868;52.360;30.424;2023-05-07T15:37:00;3.3;1.7;1
74436;PMS7003;62868;52.360;30.424;2023-05-07T15:41:34;6.3;5.3;3.7
74436;PMS7003;62868;52.360;30.424;2023-05-07T15:46:17;2.3;1.8;1
74436;PMS7003;62868;52.360;30.424;2023-05-07T15:51:16;1;0.3;0.3
74436;PMS7003;62868;52.360;30.424;2023-05-07T15:57:02;0.3;0.3;0
74436;PMS7003;62868;52.360;30.424;2023-05-07T16:01:38;0.3;0.3;0
74436;PMS7003;62868;52.360;30.424;2023-05-07T16:06:50;1;0.3;0.3
74436;PMS7003;62868;52.360;30.424;2023-05-07T16:12:02;1.3;1.3;1
74436;PMS7003;62868;52.360;30.424;2023-05-07T16:16:16;1.7;1.7;1.7
74436;PMS7003;62868;52.360;30.424;2023-05-07T16:21:26;1.7;1;1
74436;PMS7003;62868;52.360;30.424;2023-05-07T16:26:34;1.3;1;0.8
74436;PMS7003;62868;52.360;30.424;2023-05-07T16:32:02;0.3;0;0
74436;PMS7003;62868;52.360;30.424;2023-05-07T16:36:40;0.5;0;0
74436;PMS7003;62868;52.360;30.424;2023-05-07T16:42:02;1;1;0.5
74436;PMS7003;62868;52.360;30.424;2023-05-07T16:47:02;0.7;0.3;0.3
74436;PMS7003;62868;52.360;30.424;2023-05-07T16:51:16;0;0;0
74436;PMS7003;62868;52.360;30.424;2023-05-07T16:56:28;0;0;0
74436;PMS7003;62868;52.360;30.424;2023-05-07T17:01:52;0;0;0
74436;PMS7003;62868;52.360;30.424;2023-05-07T17:06:48;0;0;0
74436;PMS7003;62868;52.360;30.424;2023-05-07T17:11:28;3;3;2
74436;PMS7003;62868;52.360;30.424;2023-05-07T17:16:30;4.8;4;3.3
74436;PMS7003;62868;52.360;30.424;2023-05-07T17:22:04;4.7;4;3.3
74436;PMS7003;62868;52.360;30.424;2023-05-07T17:26:46;6;4.3;3.7
74436;PMS7003;62868;52.360;30.424;2023-05-07T17:31:26;4.7;3.7;2.7
74436;PMS7003;62868;52.360;30.424;2023-05-07T17:36:34;1.8;1.8;0.8
74436;PMS7003;62868;52.360;30.424;2023-05-07T17:42:02;1.7;0.7;0.3
74436;PMS7003;62868;52.360;30.424;2023-05-07T17:46:28;4.3;2.7;2
74436;PMS7003;62868;52.360;30.424;2023-05-07T17:52:02;2.7;2.3;1.7
74436;PMS7003;62868;52.360;30.424;2023-05-07T17:56:50;1;0.5;0.5
74436;PMS7003;62868;52.360;30.424;2023-05-07T18:01:26;1.3;0.3;0
74436;PMS7003;62868;52.360;30.424;2023-05-07T18:06:46;0.7;0.3;0
74436;PMS7003;62868;52.360;30.424;2023-05-07T18:11:28;0;0;0
74436;PMS7003;62868;52.360;30.424;2023-05-07T18:16:34;0.3;0.3;0.3
74436;PMS7003;62868;52.360;30.424;2023-05-07T18:21:42;0;0;0
74436;PMS7003;62868;52.360;30.424;2023-05-07T18:27:02;0.3;0;0
74436;PMS7003;62868;52.360;30.424;2023-05-07T18:31:42;0.3;0.3;0
74436;PMS7003;62868;52.360;30.424;2023-05-07T18:36:36;0.7;0.3;0.3
74436;PMS7003;62868;52.360;30.424;2023-05-07T18:41:44;1;0.3;0
74436;PMS7003;62868;52.360;30.424;2023-05-07T18:46:50;1.3;0.3;0.3
74436;PMS7003;62868;52.360;30.424;2023-05-07T18:51:38;1;0.3;0
74436;PMS7003;62868;52.360;30.424;2023-05-07T18:56:48;0.3;0.3;0.3
74436;PMS7003;62868;52.360;30.424;2023-05-07T19:02:04;0.7;0.7;0.3
74436;PMS7003;62868;52.360;30.424;2023-05-07T19:07:04;0;0;0
74436;PMS7003;62868;52.360;30.424;2023-05-07T19:11:16;1.3;1;0.5
74436;PMS7003;62868;52.360;30.424;2023-05-07T19:17:04;0.3;0.3;0
74436;PMS7003;62868;52.360;30.424;2023-05-07T19:21:42;0;0;0
74436;PMS7003;62868;52.360;30.424;2023-05-07T19:26:24;0;0;0
74436;PMS7003;62868;52.360;30.424;2023-05-07T19:31:34;0;0;0
74436;PMS7003;62868;52.360;30.424;2023-05-07T19:37:02;0;0;0
74436;PMS7003;62868;52.360;30.424;2023-05-07T19:41:30;0;0;0
74436;PMS7003;62868;52.360;30.424;2023-05-07T19:47:02;0.7;0.3;0
74436;PMS7003;62868;52.360;30.424;2023-05-07T19:52:02;0.3;0;0
74436;PMS7003;62868;52.360;30.424;2023-05-07T19:56:26;0.3;0;0
74436;PMS7003;62868;52.360;30.424;2023-05-07T20:01:38;0.3;0;0
74436;PMS7003;62868;52.360;30.424;2023-05-07T20:06:50;0.5;0.3;0
74436;PMS7003;62868;52.360;30.424;2023-05-07T20:11:46;0.7;0.3;0
74436;PMS7003;62868;52.360;30.424;2023-05-07T20:16:54;0;0;0
74436;PMS7003;62868;52.360;30.424;2023-05-07T20:21:42;0.3;0.3;0
74436;PMS7003;62868;52.360;30.424;2023-05-07T20:27:00;0.3;0;0
74436;PMS7003;62868;52.360;30.424;2023-05-07T20:31:24;0.3;0;0
74436;PMS7003;62868;52.360;30.424;2023-05-07T20:37:02;0;0;0
74436;PMS7003;62868;52.360;30.424;2023-05-07T20:41:16;0;0;0
74436;PMS7003;62868;52.360;30.424;2023-05-07T20:47:02;0;0;0
74436;PMS7003;62868;52.360;30.424;2023-05-07T20:51:16;0;0;0
74436;PMS7003;62868;52.360;30.424;2023-05-07T20:56:50;0;0;0
74436;PMS7003;62868;52.360;30.424;2023-05-07T21:01:50;0;0;0
74436;PMS7003;62868;52.360;30.424;2023-05-07T21:06:38;0;0;0
74436;PMS7003;62868;52.360;30.424;2023-05-07T21:11:46;0;0;0
74436;PMS7003;62868;52.360;30.424;2023-05-07T21:16:42;0;0;0
74436;PMS7003;62868;52.360;30.424;2023-05-07T21:21:16;0;0;0
74436;PMS7003;62868;52.360;30.424;2023-05-07T21:27:02;0;0;0
74436;PMS7003;62868;52.360;30.424;2023-05-07T21:31:54;0;0;0
74436;PMS7003;62868;52.360;30.424;2023-05-07T21:36:28;0;0;0
74436;PMS7003;62868;52.360;30.424;2023-05-07T21:41:46;0;0;0
74436;PMS7003;62868;52.360;30.424;2023-05-07T21:46:54;0;0;0
74436;PMS7003;62868;52.360;30.424;2023-05-07T21:51:48;0;0;0
74436;PMS7003;62868;52.360;30.424;2023-05-07T21:56:16;0;0;0
74436;PMS7003;62868;52.360;30.424;2023-05-07T22:01:50;0;0;0
74436;PMS7003;62868;52.360;30.424;2023-05-07T22:07:00;0;0;0
74436;PMS7003;62868;52.360;30.424;2023-05-07T22:12:02;0;0;0
74436;PMS7003;62868;52.360;30.424;2023-05-07T22:16:32;0;0;0
74436;PMS7003;62868;52.360;30.424;2023-05-07T22:22:00;0;0;0
74436;PMS7003;62868;52.360;30.424;2023-05-07T22:26:54;0;0;0
74436;PMS7003;62868;52.360;30.424;2023-05-07T22:31:28;0;0;0
74436;PMS7003;62868;52.360;30.424;2023-05-07T22:36:22;0;0;0
74436;PMS7003;62868;52.360;30.424;2023-05-07T22:42:00;0;0;0
74436;PMS7003;62868;52.360;30.424;2023-05-07T22:46:16;0;0;0
74436;PMS7003;62868;52.360;30.424;2023-05-07T22:52:02;0;0;0
74436;PMS7003;62868;52.360;30.424;2023-05-07T22:57:02;0;0;0
74436;PMS7003;62868;52.360;30.424;2023-05-07T23:01:28;0;0;0
74436;PMS7003;62868;52.360;30.424;2023-05-07T23:06:38;0;0;0
74436;PMS7003;62868;52.360;30.424;2023-05-07T23:11:42;0;0;0
74436;PMS7003;62868;52.360;30.424;2023-05-07T23:16:16;0.3;0;0
74436;PMS7003;62868;52.360;30.424;2023-05-07T23:21:54;0;0;0
74436;PMS7003;62868;52.360;30.424;2023-05-07T23:26:42;0;0;0
74436;PMS7003;62868;52.360;30.424;2023-05-07T23:31:34;0;0;0
74436;PMS7003;62868;52.360;30.424;2023-05-07T23:37:04;0;0;0
74436;PMS7003;62868;52.360;30.424;2023-05-07T23:41:30;0;0;0
74436;PMS7003;62868;52.360;30.424;2023-05-07T23:46:52;0.3;0;0
74436;PMS7003;62868;52.360;30.424;2023-05-07T23:52:04;0.3;0;0
74436;PMS7003;62868;52.360;30.424;2023-05-07T23:56:16;0;0;0
